sensor_id;sensor_type;location;lat;lon;timestamp;P1;durP1;ratioP1;P2;durP2;ratioP2
5295;SDS011;2670;42.720;23.336;2023-07-08T00:02:09;18.17;;;13.40;;
5295;SDS011;2670;42.720;23.336;2023-07-08T00:04:36;16.97;;;12.70;;
5295;SDS011;2670;42.720;23.336;2023-07-08T00:07:04;22.33;;;13.10;;
5295;SDS011;2670;42.720;23.336;2023-07-08T00:09:31;18.67;;;13.33;;
5295;SDS011;2670;42.720;23.336;2023-07-08T00:11:57;21.37;;;14.90;;
5295;SDS011;2670;42.720;23.336;2023-07-08T00:14:24;20.90;;;14.40;;
5295;SDS011;2670;42.720;23.336;2023-07-08T00:16:52;22.67;;;14.00;;
5295;SDS011;2670;42.720;23.336;2023-07-08T00:19:19;18.27;;;13.30;;
5295;SDS011;2670;42.720;23.336;2023-07-08T00:21:49;19.40;;;15.33;;
5295;SDS011;2670;42.720;23.336;2023-07-08T00:24:17;22.33;;;14.37;;
5295;SDS011;2670;42.720;23.336;2023-07-08T00:26:44;19.60;;;13.60;;
5295;SDS011;2670;42.720;23.336;2023-07-08T00:29:11;23.10;;;14.50;;
5295;SDS011;2670;42.720;23.336;2023-07-08T00:31:39;19.83;;;14.20;;
5295;SDS011;2670;42.720;23.336;2023-07-08T00:34:07;18.90;;;14.50;;
5295;SDS011;2670;42.720;23.336;2023-07-08T00:36:33;18.30;;;14.80;;
5295;SDS011;2670;42.720;23.336;2023-07-08T00:39:01;25.93;;;14.27;;
5295;SDS011;2670;42.720;23.336;2023-07-08T00:41:28;22.77;;;14.67;;
5295;SDS011;2670;42.720;23.336;2023-07-08T00:43:58;19.40;;;15.47;;
5295;SDS011;2670;42.720;23.336;2023-07-08T00:46:31;20.07;;;14.73;;
5295;SDS011;2670;42.720;23.336;2023-07-08T00:49:13;21.60;;;14.90;;
5295;SDS011;2670;42.720;23.336;2023-07-08T00:51:47;20.93;;;14.17;;
5295;SDS011;2670;42.720;23.336;2023-07-08T00:54:15;19.30;;;14.53;;
5295;SDS011;2670;42.720;23.336;2023-07-08T00:56:46;17.80;;;13.83;;
5295;SDS011;2670;42.720;23.336;2023-07-08T00:59:20;22.47;;;15.83;;
5295;SDS011;2670;42.720;23.336;2023-07-08T01:01:49;18.67;;;14.30;;
5295;SDS011;2670;42.720;23.336;2023-07-08T01:04:20;20.33;;;14.40;;
5295;SDS011;2670;42.720;23.336;2023-07-08T01:06:52;21.03;;;14.97;;
5295;SDS011;2670;42.720;23.336;2023-07-08T01:09:24;16.00;;;12.43;;
5295;SDS011;2670;42.720;23.336;2023-07-08T01:11:53;17.13;;;13.63;;
5295;SDS011;2670;42.720;23.336;2023-07-08T01:14:22;16.37;;;11.90;;
5295;SDS011;2670;42.720;23.336;2023-07-08T01:16:53;18.07;;;14.47;;
5295;SDS011;2670;42.720;23.336;2023-07-08T01:19:21;19.47;;;13.00;;
5295;SDS011;2670;42.720;23.336;2023-07-08T01:22:01;14.27;;;12.50;;
5295;SDS011;2670;42.720;23.336;2023-07-08T01:24:29;17.13;;;12.97;;
5295;SDS011;2670;42.720;23.336;2023-07-08T01:26:58;21.53;;;12.20;;
5295;SDS011;2670;42.720;23.336;2023-07-08T01:29:28;23.97;;;11.83;;
5295;SDS011;2670;42.720;23.336;2023-07-08T01:31:55;13.87;;;10.70;;
5295;SDS011;2670;42.720;23.336;2023-07-08T01:34:22;17.37;;;10.93;;
5295;SDS011;2670;42.720;23.336;2023-07-08T01:36:50;17.70;;;11.90;;
5295;SDS011;2670;42.720;23.336;2023-07-08T01:39:22;18.37;;;10.10;;
5295;SDS011;2670;42.720;23.336;2023-07-08T01:41:51;16.30;;;10.83;;
5295;SDS011;2670;42.720;23.336;2023-07-08T01:44:20;14.97;;;11.00;;
5295;SDS011;2670;42.720;23.336;2023-07-08T01:46:48;14.43;;;10.97;;
5295;SDS011;2670;42.720;23.336;2023-07-08T01:49:16;16.10;;;9.20;;
5295;SDS011;2670;42.720;23.336;2023-07-08T01:51:45;15.60;;;9.90;;
5295;SDS011;2670;42.720;23.336;2023-07-08T01:54:13;14.77;;;11.47;;
5295;SDS011;2670;42.720;23.336;2023-07-08T01:56:41;17.23;;;10.83;;
5295;SDS011;2670;42.720;23.336;2023-07-08T01:59:08;14.50;;;10.80;;
5295;SDS011;2670;42.720;23.336;2023-07-08T02:01:35;14.77;;;11.13;;
5295;SDS011;2670;42.720;23.336;2023-07-08T02:04:02;13.37;;;10.33;;
5295;SDS011;2670;42.720;23.336;2023-07-08T02:06:29;14.30;;;10.80;;
5295;SDS011;2670;42.720;23.336;2023-07-08T02:08:55;14.43;;;9.50;;
5295;SDS011;2670;42.720;23.336;2023-07-08T02:11:24;14.63;;;11.00;;
5295;SDS011;2670;42.720;23.336;2023-07-08T02:13:52;17.47;;;10.63;;
5295;SDS011;2670;42.720;23.336;2023-07-08T02:16:19;13.70;;;10.70;;
5295;SDS011;2670;42.720;23.336;2023-07-08T02:18:45;12.40;;;9.17;;
5295;SDS011;2670;42.720;23.336;2023-07-08T02:21:12;18.13;;;12.07;;
5295;SDS011;2670;42.720;23.336;2023-07-08T02:23:43;17.50;;;11.73;;
5295;SDS011;2670;42.720;23.336;2023-07-08T02:26:10;16.00;;;10.80;;
5295;SDS011;2670;42.720;23.336;2023-07-08T02:28:37;19.53;;;11.93;;
5295;SDS011;2670;42.720;23.336;2023-07-08T02:31:05;16.57;;;12.87;;
5295;SDS011;2670;42.720;23.336;2023-07-08T02:33:32;17.10;;;12.07;;
5295;SDS011;2670;42.720;23.336;2023-07-08T02:35:59;15.63;;;11.23;;
5295;SDS011;2670;42.720;23.336;2023-07-08T02:38:26;26.10;;;11.80;;
5295;SDS011;2670;42.720;23.336;2023-07-08T02:40:52;32.43;;;12.60;;
5295;SDS011;2670;42.720;23.336;2023-07-08T02:43:19;13.30;;;10.53;;
5295;SDS011;2670;42.720;23.336;2023-07-08T02:45:48;14.20;;;10.70;;
5295;SDS011;2670;42.720;23.336;2023-07-08T02:48:16;18.40;;;10.67;;
5295;SDS011;2670;42.720;23.336;2023-07-08T02:50:43;15.80;;;10.50;;
5295;SDS011;2670;42.720;23.336;2023-07-08T02:53:10;18.30;;;10.57;;
5295;SDS011;2670;42.720;23.336;2023-07-08T02:55:37;16.10;;;10.17;;
5295;SDS011;2670;42.720;23.336;2023-07-08T02:58:04;16.53;;;9.70;;
5295;SDS011;2670;42.720;23.336;2023-07-08T03:00:31;14.53;;;10.10;;
5295;SDS011;2670;42.720;23.336;2023-07-08T03:02:59;15.80;;;10.40;;
5295;SDS011;2670;42.720;23.336;2023-07-08T03:05:27;11.43;;;10.13;;
5295;SDS011;2670;42.720;23.336;2023-07-08T03:07:54;14.57;;;10.27;;
5295;SDS011;2670;42.720;23.336;2023-07-08T03:10:20;15.50;;;10.20;;
5295;SDS011;2670;42.720;23.336;2023-07-08T03:12:47;16.63;;;9.40;;
5295;SDS011;2670;42.720;23.336;2023-07-08T03:15:14;15.40;;;10.20;;
5295;SDS011;2670;42.720;23.336;2023-07-08T03:17:41;10.97;;;9.30;;
5295;SDS011;2670;42.720;23.336;2023-07-08T03:20:09;15.70;;;9.57;;
5295;SDS011;2670;42.720;23.336;2023-07-08T03:22:38;22.60;;;10.20;;
5295;SDS011;2670;42.720;23.336;2023-07-08T03:25:05;15.13;;;10.40;;
5295;SDS011;2670;42.720;23.336;2023-07-08T03:27:32;17.70;;;11.20;;
5295;SDS011;2670;42.720;23.336;2023-07-08T03:29:59;19.30;;;10.20;;
5295;SDS011;2670;42.720;23.336;2023-07-08T03:32:25;15.33;;;10.43;;
5295;SDS011;2670;42.720;23.336;2023-07-08T03:34:52;13.37;;;10.30;;
5295;SDS011;2670;42.720;23.336;2023-07-08T03:37:19;13.37;;;9.80;;
5295;SDS011;2670;42.720;23.336;2023-07-08T03:39:47;15.87;;;9.67;;
5295;SDS011;2670;42.720;23.336;2023-07-08T03:42:14;16.83;;;9.97;;
5295;SDS011;2670;42.720;23.336;2023-07-08T03:44:40;12.27;;;10.30;;
5295;SDS011;2670;42.720;23.336;2023-07-08T03:47:07;16.23;;;9.40;;
5295;SDS011;2670;42.720;23.336;2023-07-08T03:49:35;11.33;;;9.07;;
5295;SDS011;2670;42.720;23.336;2023-07-08T03:52:01;16.83;;;8.50;;
5295;SDS011;2670;42.720;23.336;2023-07-08T03:54:28;14.40;;;9.63;;
5295;SDS011;2670;42.720;23.336;2023-07-08T03:56:56;18.00;;;9.00;;
5295;SDS011;2670;42.720;23.336;2023-07-08T03:59:23;15.23;;;9.37;;
5295;SDS011;2670;42.720;23.336;2023-07-08T04:01:50;13.30;;;9.90;;
5295;SDS011;2670;42.720;23.336;2023-07-08T04:04:17;14.53;;;10.30;;
5295;SDS011;2670;42.720;23.336;2023-07-08T04:06:43;12.60;;;9.33;;
5295;SDS011;2670;42.720;23.336;2023-07-08T04:09:11;17.00;;;9.30;;
5295;SDS011;2670;42.720;23.336;2023-07-08T04:11:37;14.57;;;9.70;;
5295;SDS011;2670;42.720;23.336;2023-07-08T04:14:06;13.97;;;10.33;;
5295;SDS011;2670;42.720;23.336;2023-07-08T04:16:43;15.10;;;9.43;;
5295;SDS011;2670;42.720;23.336;2023-07-08T04:19:13;17.10;;;9.40;;
5295;SDS011;2670;42.720;23.336;2023-07-08T04:21:41;25.87;;;10.23;;
5295;SDS011;2670;42.720;23.336;2023-07-08T04:24:09;13.97;;;9.13;;
5295;SDS011;2670;42.720;23.336;2023-07-08T04:26:36;16.00;;;8.60;;
5295;SDS011;2670;42.720;23.336;2023-07-08T04:29:05;12.33;;;8.40;;
5295;SDS011;2670;42.720;23.336;2023-07-08T04:31:35;12.17;;;9.80;;
5295;SDS011;2670;42.720;23.336;2023-07-08T04:34:02;14.93;;;9.53;;
5295;SDS011;2670;42.720;23.336;2023-07-08T04:36:29;12.20;;;9.10;;
5295;SDS011;2670;42.720;23.336;2023-07-08T04:38:56;19.37;;;9.47;;
5295;SDS011;2670;42.720;23.336;2023-07-08T04:41:23;14.50;;;9.60;;
5295;SDS011;2670;42.720;23.336;2023-07-08T04:43:51;12.27;;;9.00;;
5295;SDS011;2670;42.720;23.336;2023-07-08T04:46:22;11.97;;;8.77;;
5295;SDS011;2670;42.720;23.336;2023-07-08T04:49:02;20.30;;;8.60;;
5295;SDS011;2670;42.720;23.336;2023-07-08T04:51:30;13.63;;;9.17;;
5295;SDS011;2670;42.720;23.336;2023-07-08T04:53:56;13.33;;;8.97;;
5295;SDS011;2670;42.720;23.336;2023-07-08T04:56:24;14.60;;;9.17;;
5295;SDS011;2670;42.720;23.336;2023-07-08T04:58:51;14.90;;;9.63;;
5295;SDS011;2670;42.720;23.336;2023-07-08T05:01:19;22.10;;;10.57;;
5295;SDS011;2670;42.720;23.336;2023-07-08T05:03:46;14.40;;;10.10;;
5295;SDS011;2670;42.720;23.336;2023-07-08T05:06:13;14.47;;;10.67;;
5295;SDS011;2670;42.720;23.336;2023-07-08T05:08:40;17.70;;;8.87;;
5295;SDS011;2670;42.720;23.336;2023-07-08T05:11:06;9.57;;;8.33;;
5295;SDS011;2670;42.720;23.336;2023-07-08T05:13:33;12.37;;;9.93;;
5295;SDS011;2670;42.720;23.336;2023-07-08T05:16:00;17.50;;;9.50;;
5295;SDS011;2670;42.720;23.336;2023-07-08T05:18:28;13.47;;;10.53;;
5295;SDS011;2670;42.720;23.336;2023-07-08T05:20:55;12.73;;;9.90;;
5295;SDS011;2670;42.720;23.336;2023-07-08T05:23:22;14.07;;;10.27;;
5295;SDS011;2670;42.720;23.336;2023-07-08T05:25:49;14.40;;;10.43;;
5295;SDS011;2670;42.720;23.336;2023-07-08T05:28:16;12.17;;;9.60;;
5295;SDS011;2670;42.720;23.336;2023-07-08T05:30:43;12.93;;;9.27;;
5295;SDS011;2670;42.720;23.336;2023-07-08T05:33:10;19.47;;;10.10;;
5295;SDS011;2670;42.720;23.336;2023-07-08T05:35:38;29.43;;;10.63;;
5295;SDS011;2670;42.720;23.336;2023-07-08T05:38:05;18.57;;;9.70;;
5295;SDS011;2670;42.720;23.336;2023-07-08T05:40:31;14.00;;;9.70;;
5295;SDS011;2670;42.720;23.336;2023-07-08T05:42:58;14.37;;;9.40;;
5295;SDS011;2670;42.720;23.336;2023-07-08T05:45:25;16.10;;;9.73;;
5295;SDS011;2670;42.720;23.336;2023-07-08T05:47:52;12.40;;;9.53;;
5295;SDS011;2670;42.720;23.336;2023-07-08T05:50:18;14.80;;;9.70;;
5295;SDS011;2670;42.720;23.336;2023-07-08T05:52:46;12.73;;;9.60;;
5295;SDS011;2670;42.720;23.336;2023-07-08T05:55:13;15.50;;;9.63;;
5295;SDS011;2670;42.720;23.336;2023-07-08T05:57:40;25.33;;;10.20;;
5295;SDS011;2670;42.720;23.336;2023-07-08T06:00:08;17.87;;;10.50;;
5295;SDS011;2670;42.720;23.336;2023-07-08T06:02:36;14.23;;;9.90;;
5295;SDS011;2670;42.720;23.336;2023-07-08T06:05:03;14.27;;;9.10;;
5295;SDS011;2670;42.720;23.336;2023-07-08T06:07:30;13.77;;;9.90;;
5295;SDS011;2670;42.720;23.336;2023-07-08T06:09:58;13.90;;;10.77;;
5295;SDS011;2670;42.720;23.336;2023-07-08T06:12:25;20.83;;;10.10;;
5295;SDS011;2670;42.720;23.336;2023-07-08T06:14:52;14.10;;;8.40;;
5295;SDS011;2670;42.720;23.336;2023-07-08T06:17:19;12.90;;;9.33;;
5295;SDS011;2670;42.720;23.336;2023-07-08T06:19:46;21.37;;;10.37;;
5295;SDS011;2670;42.720;23.336;2023-07-08T06:22:12;15.73;;;9.67;;
5295;SDS011;2670;42.720;23.336;2023-07-08T06:24:39;14.73;;;9.57;;
5295;SDS011;2670;42.720;23.336;2023-07-08T06:27:08;12.90;;;9.23;;
5295;SDS011;2670;42.720;23.336;2023-07-08T06:29:36;10.83;;;8.93;;
5295;SDS011;2670;42.720;23.336;2023-07-08T06:32:03;15.53;;;8.83;;
5295;SDS011;2670;42.720;23.336;2023-07-08T06:34:30;12.80;;;8.60;;
5295;SDS011;2670;42.720;23.336;2023-07-08T06:36:57;11.53;;;8.97;;
5295;SDS011;2670;42.720;23.336;2023-07-08T06:39:24;11.87;;;7.93;;
5295;SDS011;2670;42.720;23.336;2023-07-08T06:41:51;12.77;;;8.20;;
5295;SDS011;2670;42.720;23.336;2023-07-08T06:44:19;16.13;;;8.90;;
5295;SDS011;2670;42.720;23.336;2023-07-08T06:46:46;14.87;;;8.03;;
5295;SDS011;2670;42.720;23.336;2023-07-08T06:49:12;11.00;;;8.33;;
5295;SDS011;2670;42.720;23.336;2023-07-08T06:51:39;11.50;;;7.80;;
5295;SDS011;2670;42.720;23.336;2023-07-08T06:54:07;11.87;;;7.90;;
5295;SDS011;2670;42.720;23.336;2023-07-08T06:56:37;15.10;;;8.40;;
5295;SDS011;2670;42.720;23.336;2023-07-08T06:59:04;10.40;;;7.67;;
5295;SDS011;2670;42.720;23.336;2023-07-08T07:01:33;10.83;;;7.60;;
5295;SDS011;2670;42.720;23.336;2023-07-08T07:04:00;13.63;;;7.63;;
5295;SDS011;2670;42.720;23.336;2023-07-08T07:06:26;10.37;;;7.37;;
5295;SDS011;2670;42.720;23.336;2023-07-08T07:08:53;9.77;;;6.87;;
5295;SDS011;2670;42.720;23.336;2023-07-08T07:11:20;9.47;;;7.33;;
5295;SDS011;2670;42.720;23.336;2023-07-08T07:13:47;10.13;;;7.30;;
5295;SDS011;2670;42.720;23.336;2023-07-08T07:16:14;15.30;;;7.30;;
5295;SDS011;2670;42.720;23.336;2023-07-08T07:18:42;10.80;;;7.97;;
5295;SDS011;2670;42.720;23.336;2023-07-08T07:21:09;13.73;;;7.70;;
5295;SDS011;2670;42.720;23.336;2023-07-08T07:23:36;15.93;;;8.20;;
5295;SDS011;2670;42.720;23.336;2023-07-08T07:26:03;12.80;;;8.33;;
5295;SDS011;2670;42.720;23.336;2023-07-08T07:28:30;14.90;;;7.70;;
5295;SDS011;2670;42.720;23.336;2023-07-08T07:30:57;9.63;;;7.73;;
5295;SDS011;2670;42.720;23.336;2023-07-08T07:33:25;14.90;;;7.80;;
5295;SDS011;2670;42.720;23.336;2023-07-08T07:35:53;10.20;;;7.60;;
5295;SDS011;2670;42.720;23.336;2023-07-08T07:38:20;11.63;;;7.60;;
5295;SDS011;2670;42.720;23.336;2023-07-08T07:40:51;11.87;;;7.90;;
5295;SDS011;2670;42.720;23.336;2023-07-08T07:43:18;14.47;;;8.13;;
5295;SDS011;2670;42.720;23.336;2023-07-08T07:45:48;11.70;;;8.33;;
5295;SDS011;2670;42.720;23.336;2023-07-08T07:48:16;11.73;;;7.50;;
5295;SDS011;2670;42.720;23.336;2023-07-08T07:50:44;9.70;;;7.03;;
5295;SDS011;2670;42.720;23.336;2023-07-08T07:53:13;10.50;;;6.80;;
5295;SDS011;2670;42.720;23.336;2023-07-08T07:55:40;10.03;;;8.20;;
5295;SDS011;2670;42.720;23.336;2023-07-08T07:58:07;14.53;;;7.57;;
5295;SDS011;2670;42.720;23.336;2023-07-08T08:00:36;8.50;;;6.90;;
5295;SDS011;2670;42.720;23.336;2023-07-08T08:03:03;8.67;;;6.30;;
5295;SDS011;2670;42.720;23.336;2023-07-08T08:05:30;9.60;;;7.00;;
5295;SDS011;2670;42.720;23.336;2023-07-08T08:07:57;12.97;;;7.77;;
5295;SDS011;2670;42.720;23.336;2023-07-08T08:10:26;10.90;;;6.90;;
5295;SDS011;2670;42.720;23.336;2023-07-08T08:12:52;11.47;;;8.13;;
5295;SDS011;2670;42.720;23.336;2023-07-08T08:15:20;13.13;;;7.40;;
5295;SDS011;2670;42.720;23.336;2023-07-08T08:17:48;7.67;;;6.70;;
5295;SDS011;2670;42.720;23.336;2023-07-08T08:20:18;11.40;;;7.50;;
5295;SDS011;2670;42.720;23.336;2023-07-08T08:22:45;11.13;;;7.67;;
5295;SDS011;2670;42.720;23.336;2023-07-08T08:25:12;9.23;;;7.13;;
5295;SDS011;2670;42.720;23.336;2023-07-08T08:27:41;8.10;;;6.93;;
5295;SDS011;2670;42.720;23.336;2023-07-08T08:30:09;11.77;;;7.83;;
5295;SDS011;2670;42.720;23.336;2023-07-08T08:32:37;8.80;;;7.43;;
5295;SDS011;2670;42.720;23.336;2023-07-08T08:35:04;11.43;;;7.20;;
5295;SDS011;2670;42.720;23.336;2023-07-08T08:37:32;11.70;;;7.63;;
5295;SDS011;2670;42.720;23.336;2023-07-08T08:39:58;17.17;;;7.80;;
5295;SDS011;2670;42.720;23.336;2023-07-08T08:42:26;11.50;;;7.57;;
5295;SDS011;2670;42.720;23.336;2023-07-08T08:44:57;10.03;;;7.77;;
5295;SDS011;2670;42.720;23.336;2023-07-08T08:47:29;8.30;;;5.80;;
5295;SDS011;2670;42.720;23.336;2023-07-08T08:50:02;19.20;;;7.47;;
5295;SDS011;2670;42.720;23.336;2023-07-08T08:52:35;12.40;;;7.50;;
5295;SDS011;2670;42.720;23.336;2023-07-08T08:55:07;11.97;;;8.00;;
5295;SDS011;2670;42.720;23.336;2023-07-08T08:57:38;9.17;;;7.43;;
5295;SDS011;2670;42.720;23.336;2023-07-08T09:00:11;20.30;;;8.50;;
5295;SDS011;2670;42.720;23.336;2023-07-08T09:02:46;9.83;;;7.63;;
5295;SDS011;2670;42.720;23.336;2023-07-08T09:05:19;12.63;;;7.23;;
5295;SDS011;2670;42.720;23.336;2023-07-08T09:07:47;16.70;;;7.87;;
5295;SDS011;2670;42.720;23.336;2023-07-08T09:10:29;9.27;;;7.17;;
5295;SDS011;2670;42.720;23.336;2023-07-08T09:13:06;9.00;;;7.67;;
5295;SDS011;2670;42.720;23.336;2023-07-08T09:15:39;8.67;;;7.20;;
5295;SDS011;2670;42.720;23.336;2023-07-08T09:18:10;8.90;;;7.10;;
5295;SDS011;2670;42.720;23.336;2023-07-08T09:20:43;13.57;;;6.40;;
5295;SDS011;2670;42.720;23.336;2023-07-08T09:23:11;15.03;;;8.50;;
5295;SDS011;2670;42.720;23.336;2023-07-08T09:25:47;10.30;;;6.17;;
5295;SDS011;2670;42.720;23.336;2023-07-08T09:28:18;9.10;;;6.70;;
5295;SDS011;2670;42.720;23.336;2023-07-08T09:30:50;12.40;;;7.47;;
5295;SDS011;2670;42.720;23.336;2023-07-08T09:33:19;8.13;;;6.07;;
5295;SDS011;2670;42.720;23.336;2023-07-08T09:35:47;9.27;;;6.00;;
5295;SDS011;2670;42.720;23.336;2023-07-08T09:38:16;15.60;;;6.23;;
5295;SDS011;2670;42.720;23.336;2023-07-08T09:40:46;8.07;;;7.23;;
5295;SDS011;2670;42.720;23.336;2023-07-08T09:43:16;7.50;;;6.00;;
5295;SDS011;2670;42.720;23.336;2023-07-08T09:45:55;10.80;;;6.90;;
5295;SDS011;2670;42.720;23.336;2023-07-08T09:48:25;10.73;;;6.33;;
5295;SDS011;2670;42.720;23.336;2023-07-08T09:50:54;8.40;;;5.73;;
5295;SDS011;2670;42.720;23.336;2023-07-08T09:53:22;6.30;;;5.70;;
5295;SDS011;2670;42.720;23.336;2023-07-08T09:55:52;9.20;;;5.70;;
5295;SDS011;2670;42.720;23.336;2023-07-08T09:58:21;7.00;;;5.60;;
5295;SDS011;2670;42.720;23.336;2023-07-08T10:00:51;7.93;;;5.60;;
5295;SDS011;2670;42.720;23.336;2023-07-08T10:03:22;7.27;;;6.40;;
5295;SDS011;2670;42.720;23.336;2023-07-08T10:05:52;7.07;;;5.63;;
5295;SDS011;2670;42.720;23.336;2023-07-08T10:08:23;7.40;;;5.83;;
5295;SDS011;2670;42.720;23.336;2023-07-08T10:10:52;8.97;;;5.53;;
5295;SDS011;2670;42.720;23.336;2023-07-08T10:13:38;6.90;;;5.27;;
5295;SDS011;2670;42.720;23.336;2023-07-08T10:16:12;7.50;;;5.67;;
5295;SDS011;2670;42.720;23.336;2023-07-08T10:18:41;8.93;;;7.10;;
5295;SDS011;2670;42.720;23.336;2023-07-08T10:21:08;9.83;;;7.10;;
5295;SDS011;2670;42.720;23.336;2023-07-08T10:23:43;8.43;;;6.43;;
5295;SDS011;2670;42.720;23.336;2023-07-08T10:26:17;14.27;;;6.57;;
5295;SDS011;2670;42.720;23.336;2023-07-08T10:28:53;8.60;;;6.37;;
5295;SDS011;2670;42.720;23.336;2023-07-08T10:31:35;10.93;;;6.00;;
5295;SDS011;2670;42.720;23.336;2023-07-08T10:34:15;10.70;;;5.93;;
5295;SDS011;2670;42.720;23.336;2023-07-08T10:36:51;8.07;;;5.73;;
5295;SDS011;2670;42.720;23.336;2023-07-08T10:39:41;6.33;;;5.30;;
5295;SDS011;2670;42.720;23.336;2023-07-08T10:42:21;7.37;;;5.90;;
5295;SDS011;2670;42.720;23.336;2023-07-08T10:45:00;9.83;;;5.70;;
5295;SDS011;2670;42.720;23.336;2023-07-08T10:47:40;6.57;;;5.33;;
5295;SDS011;2670;42.720;23.336;2023-07-08T10:50:28;5.90;;;4.83;;
5295;SDS011;2670;42.720;23.336;2023-07-08T10:53:19;8.83;;;4.80;;
5295;SDS011;2670;42.720;23.336;2023-07-08T10:55:57;9.83;;;5.60;;
5295;SDS011;2670;42.720;23.336;2023-07-08T10:58:35;8.17;;;5.00;;
5295;SDS011;2670;42.720;23.336;2023-07-08T11:01:13;8.30;;;5.57;;
5295;SDS011;2670;42.720;23.336;2023-07-08T11:06:44;8.27;;;6.40;;
5295;SDS011;2670;42.720;23.336;2023-07-08T11:09:17;5.73;;;5.00;;
5295;SDS011;2670;42.720;23.336;2023-07-08T11:11:51;8.00;;;5.97;;
5295;SDS011;2670;42.720;23.336;2023-07-08T11:14:22;8.57;;;5.53;;
5295;SDS011;2670;42.720;23.336;2023-07-08T11:16:55;8.20;;;5.00;;
5295;SDS011;2670;42.720;23.336;2023-07-08T11:19:32;6.83;;;5.50;;
5295;SDS011;2670;42.720;23.336;2023-07-08T11:22:03;7.67;;;5.43;;
5295;SDS011;2670;42.720;23.336;2023-07-08T11:24:39;5.00;;;4.43;;
5295;SDS011;2670;42.720;23.336;2023-07-08T11:27:12;6.93;;;4.57;;
5295;SDS011;2670;42.720;23.336;2023-07-08T11:29:45;6.40;;;5.37;;
5295;SDS011;2670;42.720;23.336;2023-07-08T11:32:15;5.67;;;4.60;;
5295;SDS011;2670;42.720;23.336;2023-07-08T11:34:47;7.37;;;5.80;;
5295;SDS011;2670;42.720;23.336;2023-07-08T11:37:17;8.50;;;4.53;;
5295;SDS011;2670;42.720;23.336;2023-07-08T11:39:47;6.90;;;5.33;;
5295;SDS011;2670;42.720;23.336;2023-07-08T11:42:21;5.33;;;4.67;;
5295;SDS011;2670;42.720;23.336;2023-07-08T11:44:51;8.10;;;4.90;;
5295;SDS011;2670;42.720;23.336;2023-07-08T11:47:20;7.63;;;4.90;;
5295;SDS011;2670;42.720;23.336;2023-07-08T11:49:52;6.90;;;5.03;;
5295;SDS011;2670;42.720;23.336;2023-07-08T11:52:20;5.90;;;5.30;;
5295;SDS011;2670;42.720;23.336;2023-07-08T11:54:55;5.63;;;4.87;;
5295;SDS011;2670;42.720;23.336;2023-07-08T11:57:24;7.53;;;5.23;;
5295;SDS011;2670;42.720;23.336;2023-07-08T12:00:14;4.70;;;3.97;;
5295;SDS011;2670;42.720;23.336;2023-07-08T12:02:48;4.50;;;4.07;;
5295;SDS011;2670;42.720;23.336;2023-07-08T12:05:19;4.70;;;3.83;;
5295;SDS011;2670;42.720;23.336;2023-07-08T12:07:56;4.53;;;4.10;;
5295;SDS011;2670;42.720;23.336;2023-07-08T12:10:27;6.20;;;4.60;;
5295;SDS011;2670;42.720;23.336;2023-07-08T12:12:59;6.50;;;4.37;;
5295;SDS011;2670;42.720;23.336;2023-07-08T12:15:26;6.93;;;4.57;;
5295;SDS011;2670;42.720;23.336;2023-07-08T12:17:56;5.13;;;4.00;;
5295;SDS011;2670;42.720;23.336;2023-07-08T12:20:27;5.47;;;4.20;;
5295;SDS011;2670;42.720;23.336;2023-07-08T12:22:56;7.70;;;4.50;;
5295;SDS011;2670;42.720;23.336;2023-07-08T12:25:26;5.80;;;3.90;;
5295;SDS011;2670;42.720;23.336;2023-07-08T12:27:54;12.80;;;4.20;;
5295;SDS011;2670;42.720;23.336;2023-07-08T12:30:28;7.13;;;4.03;;
5295;SDS011;2670;42.720;23.336;2023-07-08T12:32:56;4.80;;;4.13;;
5295;SDS011;2670;42.720;23.336;2023-07-08T12:35:25;7.80;;;4.50;;
5295;SDS011;2670;42.720;23.336;2023-07-08T12:37:57;5.10;;;4.50;;
5295;SDS011;2670;42.720;23.336;2023-07-08T12:40:26;4.40;;;4.00;;
5295;SDS011;2670;42.720;23.336;2023-07-08T12:42:54;5.13;;;4.00;;
5295;SDS011;2670;42.720;23.336;2023-07-08T12:45:22;5.33;;;4.60;;
5295;SDS011;2670;42.720;23.336;2023-07-08T12:47:50;9.03;;;3.30;;
5295;SDS011;2670;42.720;23.336;2023-07-08T12:50:17;5.63;;;3.60;;
5295;SDS011;2670;42.720;23.336;2023-07-08T12:52:45;5.60;;;3.93;;
5295;SDS011;2670;42.720;23.336;2023-07-08T12:55:13;4.70;;;3.23;;
5295;SDS011;2670;42.720;23.336;2023-07-08T12:57:42;5.83;;;3.57;;
5295;SDS011;2670;42.720;23.336;2023-07-08T13:00:15;4.70;;;3.60;;
5295;SDS011;2670;42.720;23.336;2023-07-08T13:02:47;9.80;;;4.17;;
5295;SDS011;2670;42.720;23.336;2023-07-08T13:05:22;5.87;;;3.20;;
5295;SDS011;2670;42.720;23.336;2023-07-08T13:07:50;5.83;;;4.57;;
5295;SDS011;2670;42.720;23.336;2023-07-08T13:10:18;5.50;;;3.73;;
5295;SDS011;2670;42.720;23.336;2023-07-08T13:12:47;6.13;;;3.83;;
5295;SDS011;2670;42.720;23.336;2023-07-08T13:15:18;6.23;;;3.90;;
5295;SDS011;2670;42.720;23.336;2023-07-08T13:17:48;4.27;;;3.40;;
5295;SDS011;2670;42.720;23.336;2023-07-08T13:20:15;6.20;;;3.80;;
5295;SDS011;2670;42.720;23.336;2023-07-08T13:22:46;5.87;;;3.60;;
5295;SDS011;2670;42.720;23.336;2023-07-08T13:25:19;5.40;;;3.70;;
5295;SDS011;2670;42.720;23.336;2023-07-08T13:27:54;4.90;;;3.37;;
5295;SDS011;2670;42.720;23.336;2023-07-08T13:30:27;6.20;;;3.50;;
5295;SDS011;2670;42.720;23.336;2023-07-08T13:32:56;5.57;;;3.33;;
5295;SDS011;2670;42.720;23.336;2023-07-08T13:35:25;4.60;;;3.00;;
5295;SDS011;2670;42.720;23.336;2023-07-08T13:37:55;5.03;;;3.50;;
5295;SDS011;2670;42.720;23.336;2023-07-08T13:40:25;6.60;;;3.50;;
5295;SDS011;2670;42.720;23.336;2023-07-08T13:42:53;4.30;;;3.53;;
5295;SDS011;2670;42.720;23.336;2023-07-08T13:45:22;4.57;;;3.10;;
5295;SDS011;2670;42.720;23.336;2023-07-08T13:48:01;10.87;;;3.60;;
5295;SDS011;2670;42.720;23.336;2023-07-08T13:50:38;4.70;;;3.37;;
5295;SDS011;2670;42.720;23.336;2023-07-08T13:53:17;7.67;;;3.40;;
5295;SDS011;2670;42.720;23.336;2023-07-08T13:55:47;14.63;;;3.97;;
5295;SDS011;2670;42.720;23.336;2023-07-08T13:58:15;4.30;;;3.40;;
5295;SDS011;2670;42.720;23.336;2023-07-08T14:00:43;13.37;;;4.30;;
5295;SDS011;2670;42.720;23.336;2023-07-08T14:03:11;5.93;;;3.70;;
5295;SDS011;2670;42.720;23.336;2023-07-08T14:05:40;7.70;;;3.07;;
5295;SDS011;2670;42.720;23.336;2023-07-08T14:08:10;3.67;;;3.00;;
5295;SDS011;2670;42.720;23.336;2023-07-08T14:10:39;7.67;;;4.10;;
5295;SDS011;2670;42.720;23.336;2023-07-08T14:13:07;3.83;;;2.73;;
5295;SDS011;2670;42.720;23.336;2023-07-08T14:15:35;6.23;;;3.77;;
5295;SDS011;2670;42.720;23.336;2023-07-08T14:18:03;9.30;;;4.23;;
5295;SDS011;2670;42.720;23.336;2023-07-08T14:20:30;7.70;;;3.30;;
5295;SDS011;2670;42.720;23.336;2023-07-08T14:22:57;11.37;;;4.97;;
5295;SDS011;2670;42.720;23.336;2023-07-08T14:25:24;5.80;;;3.70;;
5295;SDS011;2670;42.720;23.336;2023-07-08T14:27:51;8.73;;;4.90;;
5295;SDS011;2670;42.720;23.336;2023-07-08T14:30:19;7.60;;;3.70;;
5295;SDS011;2670;42.720;23.336;2023-07-08T14:32:47;5.30;;;3.70;;
5295;SDS011;2670;42.720;23.336;2023-07-08T14:35:15;6.70;;;4.00;;
5295;SDS011;2670;42.720;23.336;2023-07-08T14:37:45;15.83;;;4.47;;
5295;SDS011;2670;42.720;23.336;2023-07-08T14:40:21;6.50;;;3.70;;
5295;SDS011;2670;42.720;23.336;2023-07-08T14:42:52;5.73;;;3.93;;
5295;SDS011;2670;42.720;23.336;2023-07-08T14:45:25;6.17;;;3.10;;
5295;SDS011;2670;42.720;23.336;2023-07-08T14:47:54;7.13;;;4.10;;
5295;SDS011;2670;42.720;23.336;2023-07-08T14:50:21;5.83;;;3.67;;
5295;SDS011;2670;42.720;23.336;2023-07-08T14:52:48;4.60;;;3.40;;
5295;SDS011;2670;42.720;23.336;2023-07-08T14:55:14;5.33;;;3.83;;
5295;SDS011;2670;42.720;23.336;2023-07-08T14:57:42;8.53;;;4.20;;
5295;SDS011;2670;42.720;23.336;2023-07-08T15:00:12;6.40;;;4.27;;
5295;SDS011;2670;42.720;23.336;2023-07-08T15:02:43;5.10;;;3.50;;
5295;SDS011;2670;42.720;23.336;2023-07-08T15:05:17;5.70;;;3.80;;
5295;SDS011;2670;42.720;23.336;2023-07-08T15:07:47;4.57;;;3.63;;